EZY83GV LEVC-EGKK
Flight info
| Callsign | EZY83GV |
|---|---|
| Flight time | 1h 52m |
| Altitude | 34000 |
| Route | SOPET N608 MATEX Z475 OSLAP Y90 USKAR N863 GIROM DCT AGN DCT SECHE DCT UVELI DCT CNA DCT MANAK UY110 REVTU UP88 VASUX |
| Aircraft | A319/M-SDE2E3FGIJ1RWXYZ/LB1 |
Departure
| Time | 2026-05-06 12:25 |
|---|---|
| Airport | Valencia Airport (LEVC) |
Arrival
| Time | 2026-05-06 14:18 |
|---|---|
| Airport | London Gatwick Airport (EGKK) |
| Time | Latitude | Longitude | Altitude | Speed | Heading |
|---|---|---|---|---|---|
| 2026-05-06 12:05 | 39.49005 | -0.47224 | 209 ft | 0 kts | 16° |
| 2026-05-06 12:16 | 39.48984 | -0.47232 | 215 ft | 4 kts | 21° |
| 2026-05-06 12:16 | 39.48959 | -0.47245 | 216 ft | 4 kts | 20° |
| 2026-05-06 12:16 | 39.48934 | -0.47255 | 210 ft | 4 kts | 10° |
| 2026-05-06 12:17 | 39.48910 | -0.47255 | 213 ft | 3 kts | 317° |
| 2026-05-06 12:17 | 39.48907 | -0.47252 | 214 ft | 0 kts | 312° |
| 2026-05-06 12:18 | 39.48909 | -0.47254 | 214 ft | 1 kts | 312° |
| 2026-05-06 12:19 | 39.48923 | -0.47279 | 214 ft | 6 kts | 301° |
| 2026-05-06 12:19 | 39.48948 | -0.47345 | 214 ft | 10 kts | 296° |
| 2026-05-06 12:19 | 39.48986 | -0.47445 | 211 ft | 13 kts | 296° |
| 2026-05-06 12:19 | 39.49026 | -0.47552 | 215 ft | 13 kts | 296° |
| 2026-05-06 12:20 | 39.49060 | -0.47660 | 209 ft | 13 kts | 274° |
| 2026-05-06 12:20 | 39.49040 | -0.47773 | 212 ft | 13 kts | 256° |
| 2026-05-06 12:20 | 39.49031 | -0.47893 | 209 ft | 15 kts | 283° |
| 2026-05-06 12:20 | 39.49080 | -0.48026 | 214 ft | 18 kts | 296° |
| 2026-05-06 12:21 | 39.49134 | -0.48167 | 211 ft | 17 kts | 295° |
| 2026-05-06 12:21 | 39.49187 | -0.48306 | 213 ft | 17 kts | 296° |
| 2026-05-06 12:21 | 39.49239 | -0.48443 | 209 ft | 17 kts | 296° |
| 2026-05-06 12:21 | 39.49294 | -0.48586 | 209 ft | 19 kts | 296° |
| 2026-05-06 12:22 | 39.49361 | -0.48762 | 218 ft | 24 kts | 296° |
| 2026-05-06 12:22 | 39.49434 | -0.48955 | 210 ft | 24 kts | 296° |
| 2026-05-06 12:22 | 39.49507 | -0.49146 | 212 ft | 23 kts | 296° |
| 2026-05-06 12:22 | 39.49579 | -0.49334 | 211 ft | 23 kts | 296° |
| 2026-05-06 12:23 | 39.49648 | -0.49518 | 209 ft | 23 kts | 296° |
| 2026-05-06 12:23 | 39.49718 | -0.49701 | 211 ft | 22 kts | 296° |
| 2026-05-06 12:23 | 39.49783 | -0.49873 | 209 ft | 18 kts | 296° |
| 2026-05-06 12:23 | 39.49760 | -0.49982 | 210 ft | 13 kts | 204° |
| 2026-05-06 12:24 | 39.49685 | -0.50027 | 219 ft | 11 kts | 205° |
| 2026-05-06 12:24 | 39.49628 | -0.49995 | 212 ft | 12 kts | 116° |
| 2026-05-06 12:24 | 39.49530 | -0.49734 | 214 ft | 66 kts | 116° |
| 2026-05-06 12:24 | 39.49228 | -0.48934 | 216 ft | 128 kts | 116° |
| 2026-05-06 12:25 | 39.48780 | -0.47747 | 411 ft | 157 kts | 115° |
| 2026-05-06 12:25 | 39.48275 | -0.46460 | 951 ft | 164 kts | 117° |
| 2026-05-06 12:25 | 39.47713 | -0.45129 | 1514 ft | 175 kts | 121° |
| 2026-05-06 12:25 | 39.46979 | -0.43760 | 1823 ft | 197 kts | 128° |
| 2026-05-06 12:26 | 39.46050 | -0.42251 | 1970 ft | 232 kts | 129° |
| 2026-05-06 12:26 | 39.45004 | -0.40546 | 2567 ft | 249 kts | 127° |
| 2026-05-06 12:26 | 39.43939 | -0.38743 | 3431 ft | 257 kts | 127° |
| 2026-05-06 12:26 | 39.42850 | -0.36867 | 4342 ft | 262 kts | 127° |
| 2026-05-06 12:27 | 39.41786 | -0.34924 | 5232 ft | 270 kts | 118° |
| 2026-05-06 12:27 | 39.41274 | -0.32600 | 6047 ft | 278 kts | 92° |
| 2026-05-06 12:27 | 39.41624 | -0.30132 | 6823 ft | 285 kts | 64° |
| 2026-05-06 12:27 | 39.42826 | -0.28107 | 7603 ft | 288 kts | 36° |
| 2026-05-06 12:28 | 39.44616 | -0.27004 | 8414 ft | 288 kts | 11° |
| 2026-05-06 12:28 | 39.46557 | -0.26472 | 9274 ft | 290 kts | 8° |
| 2026-05-06 12:28 | 39.48574 | -0.25933 | 10122 ft | 294 kts | 8° |
| 2026-05-06 12:28 | 39.50652 | -0.25380 | 10470 ft | 316 kts | 8° |
| 2026-05-06 12:29 | 39.52873 | -0.24783 | 10859 ft | 333 kts | 9° |
| 2026-05-06 12:29 | 39.55135 | -0.24168 | 11539 ft | 339 kts | 9° |
| 2026-05-06 12:29 | 39.57459 | -0.23531 | 12281 ft | 344 kts | 8° |
| 2026-05-06 12:29 | 39.59813 | -0.22882 | 13025 ft | 348 kts | 8° |
| 2026-05-06 12:30 | 39.62195 | -0.22223 | 13762 ft | 352 kts | 8° |
| 2026-05-06 12:30 | 39.64601 | -0.21535 | 14405 ft | 358 kts | 11° |
| 2026-05-06 12:30 | 39.66952 | -0.20366 | 15019 ft | 367 kts | 24° |
| 2026-05-06 12:30 | 39.69118 | -0.18541 | 15613 ft | 377 kts | 37° |
| 2026-05-06 12:31 | 39.71041 | -0.16191 | 16220 ft | 383 kts | 42° |
| 2026-05-06 12:31 | 39.72952 | -0.13750 | 16816 ft | 388 kts | 42° |
| 2026-05-06 12:31 | 39.74889 | -0.11281 | 17403 ft | 392 kts | 42° |
| 2026-05-06 12:31 | 39.76823 | -0.08814 | 17988 ft | 397 kts | 42° |
| 2026-05-06 12:32 | 39.78808 | -0.06286 | 18524 ft | 402 kts | 42° |
| 2026-05-06 12:32 | 39.80823 | -0.03732 | 19040 ft | 406 kts | 40° |
| 2026-05-06 12:32 | 39.83050 | -0.01482 | 19560 ft | 406 kts | 28° |
| 2026-05-06 12:32 | 39.85549 | 0.00203 | 20085 ft | 405 kts | 17° |
| 2026-05-06 12:33 | 39.88224 | 0.01321 | 20624 ft | 404 kts | 11° |
| 2026-05-06 12:33 | 39.90944 | 0.02315 | 21162 ft | 408 kts | 11° |
| 2026-05-06 12:33 | 39.93686 | 0.03326 | 21690 ft | 412 kts | 11° |
| 2026-05-06 12:33 | 39.96453 | 0.04355 | 22218 ft | 415 kts | 11° |
| 2026-05-06 12:34 | 39.99244 | 0.05396 | 22731 ft | 419 kts | 11° |
| 2026-05-06 12:34 | 40.02021 | 0.06434 | 23251 ft | 422 kts | 11° |
| 2026-05-06 12:34 | 40.04858 | 0.07494 | 23708 ft | 426 kts | 11° |
| 2026-05-06 12:34 | 40.07718 | 0.08561 | 24128 ft | 429 kts | 11° |
| 2026-05-06 12:35 | 40.10600 | 0.09635 | 24545 ft | 432 kts | 11° |
| 2026-05-06 12:35 | 40.13503 | 0.10717 | 24949 ft | 435 kts | 10° |
| 2026-05-06 12:35 | 40.16429 | 0.11810 | 25354 ft | 439 kts | 11° |
| 2026-05-06 12:35 | 40.19372 | 0.12910 | 25747 ft | 441 kts | 10° |
| 2026-05-06 12:36 | 40.22331 | 0.14018 | 26139 ft | 444 kts | 10° |
| 2026-05-06 12:36 | 40.25311 | 0.15134 | 26516 ft | 447 kts | 10° |
| 2026-05-06 12:36 | 40.28269 | 0.16240 | 26885 ft | 450 kts | 10° |
| 2026-05-06 12:36 | 40.31289 | 0.17373 | 27275 ft | 453 kts | 10° |
| 2026-05-06 12:37 | 40.34329 | 0.18515 | 27666 ft | 455 kts | 10° |
| 2026-05-06 12:37 | 40.37385 | 0.19662 | 28030 ft | 458 kts | 10° |
| 2026-05-06 12:37 | 40.40462 | 0.20819 | 28403 ft | 461 kts | 10° |
| 2026-05-06 12:37 | 40.43555 | 0.21986 | 28776 ft | 464 kts | 10° |
| 2026-05-06 12:38 | 40.46669 | 0.23161 | 29140 ft | 467 kts | 10° |
| 2026-05-06 12:38 | 40.49796 | 0.24339 | 29484 ft | 469 kts | 10° |
| 2026-05-06 12:38 | 40.52947 | 0.25527 | 29833 ft | 472 kts | 10° |
| 2026-05-06 12:38 | 40.56035 | 0.26912 | 30138 ft | 480 kts | 18° |
| 2026-05-06 12:39 | 40.59050 | 0.28871 | 30420 ft | 486 kts | 23° |
| 2026-05-06 12:39 | 40.62053 | 0.30950 | 30706 ft | 488 kts | 23° |
| 2026-05-06 12:39 | 40.65062 | 0.33031 | 30985 ft | 490 kts | 23° |
| 2026-05-06 12:39 | 40.68088 | 0.35122 | 31267 ft | 492 kts | 23° |
| 2026-05-06 12:40 | 40.71122 | 0.37220 | 31594 ft | 492 kts | 23° |
| 2026-05-06 12:40 | 40.74151 | 0.39315 | 32000 ft | 491 kts | 23° |
| 2026-05-06 12:40 | 40.77172 | 0.41406 | 32411 ft | 490 kts | 23° |
| 2026-05-06 12:40 | 40.80188 | 0.43494 | 32805 ft | 489 kts | 23° |
| 2026-05-06 12:41 | 40.83160 | 0.45554 | 33200 ft | 488 kts | 23° |
| 2026-05-06 12:41 | 40.86161 | 0.47636 | 33591 ft | 487 kts | 23° |
| 2026-05-06 12:41 | 40.89154 | 0.49716 | 33900 ft | 488 kts | 23° |
| 2026-05-06 12:41 | 40.92168 | 0.51815 | 33960 ft | 493 kts | 23° |
| 2026-05-06 12:42 | 40.98305 | 0.56092 | 33957 ft | 501 kts | 23° |
| 2026-05-06 12:42 | 41.04173 | 0.60203 | 33957 ft | 502 kts | 24° |
| 2026-05-06 12:43 | 41.10084 | 0.64340 | 33958 ft | 503 kts | 23° |
| 2026-05-06 12:43 | 41.16470 | 0.67869 | 33953 ft | 494 kts | 11° |
| 2026-05-06 12:44 | 41.23054 | 0.70435 | 33957 ft | 494 kts | 11° |
| 2026-05-06 12:44 | 41.29648 | 0.73007 | 33964 ft | 494 kts | 11° |
| 2026-05-06 12:45 | 41.36199 | 0.75566 | 33960 ft | 493 kts | 11° |
| 2026-05-06 12:46 | 41.46070 | 0.79451 | 33960 ft | 493 kts | 11° |
| 2026-05-06 12:46 | 41.52657 | 0.82041 | 33962 ft | 493 kts | 11° |
| 2026-05-06 12:47 | 41.59239 | 0.84629 | 33961 ft | 493 kts | 11° |
| 2026-05-06 12:47 | 41.65776 | 0.87214 | 33960 ft | 493 kts | 11° |
| 2026-05-06 12:48 | 41.72363 | 0.89821 | 33961 ft | 493 kts | 11° |
| 2026-05-06 12:48 | 41.78952 | 0.92433 | 33957 ft | 494 kts | 12° |
| 2026-05-06 12:49 | 41.85535 | 0.95053 | 33973 ft | 494 kts | 12° |
| 2026-05-06 12:49 | 41.92121 | 0.97674 | 33974 ft | 494 kts | 12° |
| 2026-05-06 12:50 | 41.98660 | 1.00296 | 33987 ft | 494 kts | 12° |
| 2026-05-06 12:50 | 42.05244 | 1.02929 | 33975 ft | 494 kts | 12° |
| 2026-05-06 12:51 | 42.11821 | 1.05517 | 34298 ft | 492 kts | 8° |
| 2026-05-06 12:51 | 42.15203 | 1.06223 | 34591 ft | 484 kts | 358° |
| 2026-05-06 12:51 | 42.18533 | 1.06150 | 34887 ft | 476 kts | 349° |
| 2026-05-06 12:51 | 42.21794 | 1.05790 | 35166 ft | 476 kts | 349° |
| 2026-05-06 12:52 | 42.25092 | 1.05432 | 35422 ft | 476 kts | 350° |
| 2026-05-06 12:52 | 42.28390 | 1.05076 | 35690 ft | 475 kts | 350° |
| 2026-05-06 12:52 | 42.31690 | 1.04719 | 35894 ft | 476 kts | 350° |
| 2026-05-06 12:53 | 42.38298 | 1.04007 | 35931 ft | 477 kts | 350° |
| 2026-05-06 12:53 | 42.44903 | 1.03302 | 35931 ft | 476 kts | 350° |
| 2026-05-06 12:54 | 42.51456 | 1.02596 | 35939 ft | 476 kts | 350° |
| 2026-05-06 12:54 | 42.58048 | 1.01878 | 35941 ft | 475 kts | 350° |
| 2026-05-06 12:55 | 42.64638 | 1.01138 | 35952 ft | 475 kts | 350° |
| 2026-05-06 12:55 | 42.71229 | 1.00411 | 35961 ft | 475 kts | 350° |
| 2026-05-06 12:56 | 42.77773 | 0.99702 | 35966 ft | 475 kts | 350° |
| 2026-05-06 12:56 | 42.84365 | 0.98976 | 35978 ft | 475 kts | 350° |
| 2026-05-06 12:57 | 42.90954 | 0.98247 | 35984 ft | 475 kts | 350° |
| 2026-05-06 12:57 | 42.97538 | 0.97525 | 35988 ft | 475 kts | 350° |
| 2026-05-06 12:58 | 43.04078 | 0.96799 | 35999 ft | 474 kts | 350° |
| 2026-05-06 12:58 | 43.10655 | 0.96066 | 35992 ft | 474 kts | 350° |
| 2026-05-06 12:59 | 43.17235 | 0.95334 | 35993 ft | 474 kts | 351° |
| 2026-05-06 12:59 | 43.23814 | 0.94608 | 35988 ft | 474 kts | 351° |
| 2026-05-06 13:00 | 43.30392 | 0.93879 | 35988 ft | 474 kts | 351° |
| 2026-05-06 13:00 | 43.36916 | 0.93145 | 35990 ft | 473 kts | 351° |
| 2026-05-06 13:01 | 43.43475 | 0.92417 | 35991 ft | 473 kts | 351° |
| 2026-05-06 13:01 | 43.50043 | 0.91685 | 35988 ft | 473 kts | 351° |
| 2026-05-06 13:02 | 43.56596 | 0.90942 | 35980 ft | 473 kts | 351° |
| 2026-05-06 13:02 | 43.63154 | 0.90203 | 35979 ft | 473 kts | 352° |
| 2026-05-06 13:03 | 43.69667 | 0.89477 | 35974 ft | 472 kts | 352° |
| 2026-05-06 13:03 | 43.76217 | 0.88733 | 35969 ft | 472 kts | 352° |
| 2026-05-06 13:04 | 43.82769 | 0.87978 | 35966 ft | 472 kts | 352° |
| 2026-05-06 13:04 | 43.89234 | 0.86683 | 35967 ft | 466 kts | 340° |
| 2026-05-06 13:05 | 43.95112 | 0.83234 | 35968 ft | 462 kts | 331° |
| 2026-05-06 13:05 | 44.00931 | 0.79476 | 35959 ft | 461 kts | 332° |
| 2026-05-06 13:06 | 44.06746 | 0.75725 | 35963 ft | 460 kts | 332° |
| 2026-05-06 13:06 | 44.12550 | 0.71965 | 35954 ft | 460 kts | 332° |
| 2026-05-06 13:07 | 44.18347 | 0.68200 | 35958 ft | 460 kts | 332° |
| 2026-05-06 13:07 | 44.24098 | 0.64455 | 35958 ft | 459 kts | 332° |
| 2026-05-06 13:08 | 44.29887 | 0.60689 | 35950 ft | 459 kts | 332° |
| 2026-05-06 13:08 | 44.35659 | 0.56924 | 35949 ft | 458 kts | 332° |
| 2026-05-06 13:09 | 44.41437 | 0.53134 | 35942 ft | 458 kts | 332° |
| 2026-05-06 13:09 | 44.47165 | 0.49369 | 35934 ft | 458 kts | 332° |
| 2026-05-06 13:10 | 44.52923 | 0.45549 | 35937 ft | 458 kts | 332° |
| 2026-05-06 13:10 | 44.58669 | 0.41716 | 35941 ft | 457 kts | 332° |
| 2026-05-06 13:11 | 44.64421 | 0.37881 | 35946 ft | 458 kts | 332° |
| 2026-05-06 13:11 | 44.70135 | 0.34070 | 35948 ft | 458 kts | 332° |
| 2026-05-06 13:12 | 44.75885 | 0.30223 | 35949 ft | 458 kts | 332° |
| 2026-05-06 13:12 | 44.81638 | 0.26373 | 35950 ft | 458 kts | 332° |
| 2026-05-06 13:13 | 44.87385 | 0.22518 | 35941 ft | 457 kts | 332° |
| 2026-05-06 13:13 | 44.93118 | 0.18654 | 35937 ft | 457 kts | 332° |
| 2026-05-06 13:14 | 44.98822 | 0.14804 | 35928 ft | 457 kts | 333° |
| 2026-05-06 13:14 | 45.04555 | 0.10937 | 35921 ft | 457 kts | 333° |
| 2026-05-06 13:15 | 45.10292 | 0.07041 | 35922 ft | 457 kts | 333° |
| 2026-05-06 13:15 | 45.16028 | 0.03141 | 35919 ft | 457 kts | 333° |
| 2026-05-06 13:16 | 45.21762 | -0.00759 | 35923 ft | 457 kts | 333° |
| 2026-05-06 13:16 | 45.27457 | -0.04645 | 35925 ft | 457 kts | 333° |
| 2026-05-06 13:17 | 45.33184 | -0.08564 | 35921 ft | 457 kts | 333° |
| 2026-05-06 13:17 | 45.38909 | -0.12488 | 35922 ft | 457 kts | 333° |
| 2026-05-06 13:18 | 45.44634 | -0.16420 | 35927 ft | 457 kts | 333° |
| 2026-05-06 13:18 | 45.50313 | -0.20332 | 35924 ft | 456 kts | 333° |
| 2026-05-06 13:19 | 45.56029 | -0.24274 | 35930 ft | 456 kts | 333° |
| 2026-05-06 13:19 | 45.61736 | -0.28223 | 35927 ft | 456 kts | 333° |
| 2026-05-06 13:20 | 45.67261 | -0.32600 | 35923 ft | 453 kts | 321° |
| 2026-05-06 13:20 | 45.72174 | -0.38145 | 35927 ft | 453 kts | 321° |
| 2026-05-06 13:21 | 45.77119 | -0.43724 | 35933 ft | 453 kts | 321° |
| 2026-05-06 13:21 | 45.82065 | -0.49308 | 35939 ft | 452 kts | 321° |
| 2026-05-06 13:22 | 45.87003 | -0.54896 | 35944 ft | 452 kts | 321° |
| 2026-05-06 13:22 | 45.91802 | -0.60358 | 35944 ft | 451 kts | 321° |
| 2026-05-06 13:23 | 45.96757 | -0.66007 | 35942 ft | 451 kts | 321° |
| 2026-05-06 13:23 | 46.01645 | -0.71589 | 35949 ft | 451 kts | 321° |
| 2026-05-06 13:24 | 46.06559 | -0.77203 | 35953 ft | 451 kts | 321° |
| 2026-05-06 13:24 | 46.11465 | -0.82821 | 35968 ft | 451 kts | 321° |
| 2026-05-06 13:25 | 46.16338 | -0.88417 | 35969 ft | 451 kts | 321° |
| 2026-05-06 13:25 | 46.21237 | -0.94062 | 35976 ft | 451 kts | 321° |
| 2026-05-06 13:26 | 46.26133 | -0.99718 | 35983 ft | 450 kts | 321° |
| 2026-05-06 13:26 | 46.31020 | -1.05376 | 35980 ft | 450 kts | 321° |
| 2026-05-06 13:27 | 46.35877 | -1.11009 | 35981 ft | 450 kts | 321° |
| 2026-05-06 13:27 | 46.40757 | -1.16683 | 35974 ft | 450 kts | 321° |
| 2026-05-06 13:28 | 46.45633 | -1.22362 | 35974 ft | 449 kts | 321° |
| 2026-05-06 13:28 | 46.50497 | -1.28052 | 35979 ft | 449 kts | 321° |
| 2026-05-06 13:29 | 46.55324 | -1.33707 | 35979 ft | 449 kts | 321° |
| 2026-05-06 13:29 | 46.60280 | -1.39222 | 35978 ft | 449 kts | 329° |
| 2026-05-06 13:30 | 46.65862 | -1.43291 | 35978 ft | 449 kts | 334° |
| 2026-05-06 13:30 | 46.71480 | -1.47259 | 35971 ft | 449 kts | 334° |
| 2026-05-06 13:31 | 46.77055 | -1.51225 | 35973 ft | 449 kts | 333° |
| 2026-05-06 13:31 | 46.82670 | -1.55233 | 35962 ft | 449 kts | 333° |
| 2026-05-06 13:32 | 46.88483 | -1.58313 | 35956 ft | 450 kts | 349° |
| 2026-05-06 13:32 | 46.94716 | -1.59093 | 35961 ft | 450 kts | 355° |
| 2026-05-06 13:33 | 47.00978 | -1.59734 | 35959 ft | 451 kts | 355° |
| 2026-05-06 13:33 | 47.07203 | -1.60384 | 35964 ft | 452 kts | 355° |
| 2026-05-06 13:34 | 47.13473 | -1.61043 | 35967 ft | 452 kts | 355° |
| 2026-05-06 13:34 | 47.19752 | -1.61719 | 35969 ft | 452 kts | 354° |
| 2026-05-06 13:35 | 47.26024 | -1.62563 | 35969 ft | 453 kts | 353° |
| 2026-05-06 13:35 | 47.32301 | -1.63466 | 35980 ft | 453 kts | 353° |
| 2026-05-06 13:36 | 47.38544 | -1.64345 | 35976 ft | 454 kts | 353° |
| 2026-05-06 13:36 | 47.44830 | -1.65235 | 35975 ft | 454 kts | 353° |
| 2026-05-06 13:37 | 47.51122 | -1.66134 | 35975 ft | 454 kts | 354° |
| 2026-05-06 13:37 | 47.57372 | -1.67023 | 35978 ft | 454 kts | 354° |
| 2026-05-06 13:38 | 47.63664 | -1.67913 | 35974 ft | 454 kts | 354° |
| 2026-05-06 13:38 | 47.69955 | -1.68811 | 35978 ft | 455 kts | 354° |
| 2026-05-06 13:39 | 47.76256 | -1.69725 | 35975 ft | 455 kts | 353° |
| 2026-05-06 13:39 | 47.82557 | -1.70634 | 35983 ft | 455 kts | 354° |
| 2026-05-06 13:40 | 47.88822 | -1.71538 | 35980 ft | 455 kts | 353° |
| 2026-05-06 13:40 | 47.95131 | -1.72454 | 35985 ft | 456 kts | 353° |
| 2026-05-06 13:41 | 48.01441 | -1.73367 | 35986 ft | 455 kts | 354° |
| 2026-05-06 13:41 | 48.07749 | -1.74165 | 35982 ft | 456 kts | 359° |
| 2026-05-06 13:42 | 48.14047 | -1.74221 | 35984 ft | 455 kts | 359° |
| 2026-05-06 13:42 | 48.20383 | -1.74317 | 35982 ft | 455 kts | 358° |
| 2026-05-06 13:43 | 48.26714 | -1.74409 | 35981 ft | 455 kts | 359° |
| 2026-05-06 13:43 | 48.33043 | -1.74490 | 35981 ft | 455 kts | 359° |
| 2026-05-06 13:44 | 48.39331 | -1.74553 | 35983 ft | 455 kts | 359° |
| 2026-05-06 13:44 | 48.45655 | -1.74633 | 35986 ft | 455 kts | 359° |
| 2026-05-06 13:45 | 48.51978 | -1.74709 | 35984 ft | 454 kts | 359° |
| 2026-05-06 13:45 | 48.61457 | -1.74821 | 35985 ft | 454 kts | 359° |
| 2026-05-06 13:46 | 48.67779 | -1.74892 | 35986 ft | 454 kts | 359° |
| 2026-05-06 13:46 | 48.74047 | -1.74977 | 35992 ft | 454 kts | 359° |
| 2026-05-06 13:47 | 48.80365 | -1.75063 | 35987 ft | 454 kts | 359° |
| 2026-05-06 13:47 | 48.86677 | -1.75133 | 35993 ft | 454 kts | 359° |
| 2026-05-06 13:48 | 48.92947 | -1.75187 | 35995 ft | 454 kts | 359° |
| 2026-05-06 13:48 | 48.99227 | -1.74982 | 35997 ft | 454 kts | 1° |
| 2026-05-06 13:49 | 49.05532 | -1.74654 | 35997 ft | 454 kts | 1° |
| 2026-05-06 13:49 | 49.11850 | -1.74379 | 35999 ft | 454 kts | 0° |
| 2026-05-06 13:50 | 49.18162 | -1.74145 | 36002 ft | 454 kts | 0° |
| 2026-05-06 13:50 | 49.24480 | -1.73913 | 36001 ft | 454 kts | 0° |
| 2026-05-06 13:51 | 49.30751 | -1.73667 | 36000 ft | 454 kts | 0° |
| 2026-05-06 13:51 | 49.37066 | -1.73417 | 36001 ft | 454 kts | 0° |
| 2026-05-06 13:52 | 49.43383 | -1.73179 | 36000 ft | 454 kts | 0° |
| 2026-05-06 13:52 | 49.49705 | -1.72935 | 35999 ft | 454 kts | 0° |
| 2026-05-06 13:53 | 49.55964 | -1.72697 | 35997 ft | 453 kts | 0° |
| 2026-05-06 13:53 | 49.59093 | -1.72358 | 35847 ft | 444 kts | 8° |
| 2026-05-06 13:53 | 49.62069 | -1.71269 | 35597 ft | 436 kts | 17° |
| 2026-05-06 13:54 | 49.64913 | -1.69703 | 35350 ft | 432 kts | 19° |
| 2026-05-06 13:54 | 49.67738 | -1.68135 | 35106 ft | 430 kts | 18° |
| 2026-05-06 13:54 | 49.70553 | -1.66578 | 34865 ft | 430 kts | 18° |
| 2026-05-06 13:54 | 49.72413 | -1.65552 | 34702 ft | 429 kts | 18° |
| 2026-05-06 13:55 | 49.75225 | -1.64002 | 34459 ft | 429 kts | 18° |
| 2026-05-06 13:55 | 49.78031 | -1.62451 | 34237 ft | 428 kts | 18° |
| 2026-05-06 13:55 | 49.81744 | -1.60389 | 33859 ft | 426 kts | 19° |
| 2026-05-06 13:55 | 49.84526 | -1.58842 | 33293 ft | 423 kts | 19° |
| 2026-05-06 13:56 | 49.87208 | -1.57349 | 32750 ft | 420 kts | 19° |
| 2026-05-06 13:56 | 49.89023 | -1.56337 | 32380 ft | 418 kts | 19° |
| 2026-05-06 13:56 | 49.91757 | -1.54813 | 31802 ft | 417 kts | 19° |
| 2026-05-06 13:56 | 49.94478 | -1.53299 | 31235 ft | 415 kts | 19° |
| 2026-05-06 13:57 | 49.97191 | -1.51784 | 30658 ft | 414 kts | 19° |
| 2026-05-06 13:57 | 49.99895 | -1.50270 | 30092 ft | 412 kts | 19° |
| 2026-05-06 13:57 | 50.02603 | -1.48821 | 29486 ft | 410 kts | 17° |
| 2026-05-06 13:57 | 50.05302 | -1.47478 | 28942 ft | 406 kts | 16° |
| 2026-05-06 13:58 | 50.07990 | -1.46195 | 28400 ft | 402 kts | 15° |
| 2026-05-06 13:58 | 50.10661 | -1.44936 | 27863 ft | 399 kts | 15° |
| 2026-05-06 13:58 | 50.13311 | -1.43680 | 27326 ft | 397 kts | 16° |
| 2026-05-06 13:58 | 50.15907 | -1.42435 | 26807 ft | 395 kts | 16° |
| 2026-05-06 13:59 | 50.18528 | -1.41164 | 26276 ft | 393 kts | 16° |
| 2026-05-06 13:59 | 50.21139 | -1.39887 | 25760 ft | 392 kts | 16° |
| 2026-05-06 13:59 | 50.23735 | -1.38606 | 25253 ft | 391 kts | 16° |
| 2026-05-06 13:59 | 50.26325 | -1.37323 | 24755 ft | 390 kts | 16° |
| 2026-05-06 14:00 | 50.28906 | -1.36041 | 24269 ft | 389 kts | 16° |
| 2026-05-06 14:00 | 50.31485 | -1.34765 | 23784 ft | 387 kts | 16° |
| 2026-05-06 14:00 | 50.34036 | -1.33507 | 23275 ft | 386 kts | 16° |
| 2026-05-06 14:00 | 50.36425 | -1.32329 | 22844 ft | 383 kts | 16° |
| 2026-05-06 14:01 | 50.38937 | -1.31089 | 22391 ft | 379 kts | 16° |
| 2026-05-06 14:01 | 50.41434 | -1.29852 | 21942 ft | 375 kts | 16° |
| 2026-05-06 14:01 | 50.43916 | -1.28621 | 21505 ft | 372 kts | 16° |
| 2026-05-06 14:01 | 50.46370 | -1.27402 | 21059 ft | 369 kts | 16° |
| 2026-05-06 14:02 | 50.48791 | -1.26109 | 20597 ft | 367 kts | 21° |
| 2026-05-06 14:02 | 50.51036 | -1.24243 | 20134 ft | 365 kts | 32° |
| 2026-05-06 14:02 | 50.53044 | -1.21808 | 19670 ft | 364 kts | 39° |
| 2026-05-06 14:02 | 50.54757 | -1.19546 | 19257 ft | 363 kts | 39° |
| 2026-05-06 14:03 | 50.56690 | -1.17004 | 18776 ft | 362 kts | 39° |
| 2026-05-06 14:03 | 50.58598 | -1.14500 | 18306 ft | 361 kts | 39° |
| 2026-05-06 14:03 | 50.60524 | -1.11969 | 17789 ft | 360 kts | 39° |
| 2026-05-06 14:03 | 50.62435 | -1.09452 | 17315 ft | 357 kts | 39° |
| 2026-05-06 14:04 | 50.64335 | -1.06946 | 16848 ft | 355 kts | 39° |
| 2026-05-06 14:04 | 50.66155 | -1.04332 | 16388 ft | 354 kts | 46° |
| 2026-05-06 14:04 | 50.67728 | -1.01361 | 15926 ft | 352 kts | 50° |
| 2026-05-06 14:04 | 50.69272 | -0.98380 | 15471 ft | 350 kts | 49° |
| 2026-05-06 14:05 | 50.70807 | -0.95417 | 15020 ft | 348 kts | 49° |
| 2026-05-06 14:05 | 50.72320 | -0.92498 | 14577 ft | 347 kts | 49° |
| 2026-05-06 14:05 | 50.73845 | -0.89556 | 14118 ft | 346 kts | 49° |
| 2026-05-06 14:05 | 50.75360 | -0.86629 | 13648 ft | 344 kts | 49° |
| 2026-05-06 14:06 | 50.76867 | -0.83709 | 13303 ft | 338 kts | 49° |
| 2026-05-06 14:06 | 50.78326 | -0.80878 | 13166 ft | 326 kts | 49° |
| 2026-05-06 14:06 | 50.79732 | -0.78143 | 13031 ft | 316 kts | 50° |
| 2026-05-06 14:06 | 50.80866 | -0.75227 | 12853 ft | 309 kts | 64° |
| 2026-05-06 14:07 | 50.81517 | -0.72014 | 12545 ft | 308 kts | 77° |
| 2026-05-06 14:07 | 50.81898 | -0.68683 | 12164 ft | 307 kts | 78° |
| 2026-05-06 14:07 | 50.82279 | -0.65369 | 11796 ft | 306 kts | 78° |
| 2026-05-06 14:07 | 50.82664 | -0.62072 | 11422 ft | 305 kts | 77° |
| 2026-05-06 14:08 | 50.83048 | -0.58803 | 11080 ft | 302 kts | 77° |
| 2026-05-06 14:08 | 50.83424 | -0.55579 | 10759 ft | 300 kts | 77° |
| 2026-05-06 14:08 | 50.83800 | -0.52336 | 10378 ft | 299 kts | 77° |
| 2026-05-06 14:08 | 50.84169 | -0.49122 | 10071 ft | 296 kts | 77° |
| 2026-05-06 14:09 | 50.84533 | -0.45960 | 9657 ft | 289 kts | 77° |
| 2026-05-06 14:09 | 50.84889 | -0.42854 | 9064 ft | 286 kts | 77° |
| 2026-05-06 14:09 | 50.85242 | -0.39765 | 8460 ft | 283 kts | 77° |
| 2026-05-06 14:09 | 50.85882 | -0.36890 | 7851 ft | 274 kts | 53° |
| 2026-05-06 14:10 | 50.87221 | -0.34875 | 7263 ft | 264 kts | 25° |
| 2026-05-06 14:10 | 50.88958 | -0.34174 | 6729 ft | 258 kts | 356° |
| 2026-05-06 14:10 | 50.90690 | -0.34734 | 6349 ft | 255 kts | 342° |
| 2026-05-06 14:10 | 50.92358 | -0.35561 | 5956 ft | 254 kts | 341° |
| 2026-05-06 14:11 | 50.94031 | -0.36431 | 5538 ft | 253 kts | 341° |
| 2026-05-06 14:11 | 50.95693 | -0.37320 | 5120 ft | 252 kts | 341° |
| 2026-05-06 14:11 | 50.97344 | -0.38220 | 4698 ft | 251 kts | 341° |
| 2026-05-06 14:11 | 50.98992 | -0.39145 | 4286 ft | 250 kts | 341° |
| 2026-05-06 14:12 | 51.00611 | -0.40056 | 3884 ft | 249 kts | 341° |
| 2026-05-06 14:12 | 51.02236 | -0.40969 | 3468 ft | 247 kts | 341° |
| 2026-05-06 14:12 | 51.03851 | -0.41886 | 3190 ft | 242 kts | 341° |
| 2026-05-06 14:12 | 51.05402 | -0.42763 | 3050 ft | 231 kts | 341° |
| 2026-05-06 14:13 | 51.06750 | -0.43534 | 2920 ft | 218 kts | 341° |
| 2026-05-06 14:13 | 51.08124 | -0.44318 | 2745 ft | 206 kts | 341° |
| 2026-05-06 14:13 | 51.09476 | -0.44840 | 2524 ft | 201 kts | 2° |
| 2026-05-06 14:13 | 51.10737 | -0.44163 | 2380 ft | 193 kts | 35° |
| 2026-05-06 14:14 | 51.11528 | -0.42479 | 2257 ft | 194 kts | 68° |
| 2026-05-06 14:14 | 51.11845 | -0.40399 | 2124 ft | 191 kts | 74° |
| 2026-05-06 14:14 | 51.12130 | -0.38335 | 2046 ft | 191 kts | 75° |
| 2026-05-06 14:14 | 51.12412 | -0.36304 | 2026 ft | 187 kts | 73° |
| 2026-05-06 14:15 | 51.12683 | -0.34353 | 1934 ft | 173 kts | 74° |
| 2026-05-06 14:15 | 51.12937 | -0.32532 | 1734 ft | 164 kts | 72° |
| 2026-05-06 14:15 | 51.13180 | -0.30793 | 1530 ft | 158 kts | 74° |
| 2026-05-06 14:15 | 51.13410 | -0.29136 | 1317 ft | 153 kts | 73° |
| 2026-05-06 14:16 | 51.13631 | -0.27555 | 1099 ft | 138 kts | 73° |
| 2026-05-06 14:16 | 51.13834 | -0.26145 | 947 ft | 126 kts | 75° |
| 2026-05-06 14:16 | 51.14020 | -0.24769 | 770 ft | 128 kts | 77° |
| 2026-05-06 14:16 | 51.14209 | -0.23398 | 627 ft | 127 kts | 77° |
| 2026-05-06 14:17 | 51.14401 | -0.22031 | 471 ft | 126 kts | 77° |
| 2026-05-06 14:17 | 51.14581 | -0.20685 | 252 ft | 124 kts | 76° |
| 2026-05-06 14:17 | 51.14757 | -0.19471 | 208 ft | 96 kts | 78° |
| 2026-05-06 14:17 | 51.14864 | -0.18672 | 202 ft | 58 kts | 77° |
| 2026-05-06 14:18 | 51.14944 | -0.18115 | 213 ft | 49 kts | 76° |
| 2026-05-06 14:18 | 51.15045 | -0.17821 | 205 ft | 19 kts | 51° |
| 2026-05-06 14:18 | 51.15128 | -0.17752 | 204 ft | 13 kts | 353° |
| 2026-05-06 14:18 | 51.15213 | -0.17784 | 204 ft | 13 kts | 358° |
| 2026-05-06 14:19 | 51.15268 | -0.17678 | 203 ft | 14 kts | 76° |
| 2026-05-06 14:19 | 51.15291 | -0.17515 | 211 ft | 15 kts | 78° |
| 2026-05-06 14:19 | 51.15335 | -0.17369 | 207 ft | 15 kts | 20° |
| 2026-05-06 14:19 | 51.15441 | -0.17402 | 203 ft | 16 kts | 347° |
| 2026-05-06 14:20 | 51.15552 | -0.17441 | 203 ft | 17 kts | 348° |
| 2026-05-06 14:20 | 51.15667 | -0.17480 | 210 ft | 17 kts | 348° |
| 2026-05-06 14:20 | 51.15773 | -0.17440 | 206 ft | 17 kts | 69° |
| 2026-05-06 14:20 | 51.15796 | -0.17252 | 208 ft | 18 kts | 78° |
| 2026-05-06 14:21 | 51.15840 | -0.17085 | 208 ft | 14 kts | 30° |
| 2026-05-06 14:21 | 51.15926 | -0.17021 | 209 ft | 11 kts | 40° |
| 2026-05-06 14:21 | 51.15987 | -0.17054 | 205 ft | 10 kts | 321° |
| 2026-05-06 14:21 | 51.16004 | -0.17075 | 202 ft | 0 kts | 321° |
| 2026-05-06 14:22 | 51.16004 | -0.17076 | 202 ft | 0 kts | 321° |